Terminal Aerodrome Forecast
Issued by NWS

Home | Current Version | Previous Version | Graphics & Text | Print | Product List | Glossary On
Versions: 1 2 3 4 5 6 7 8 9 10 11 12 13
000
FTUS43 KICT 142322
TAFHUT
TAF
KHUT 142322Z 1500/1524 19007KT P6SM SCT250
     FM150500 19011KT P6SM BKN200
     FM151700 26012KT P6SM BKN200
     FM152100 31013G22KT P6SM SCT250=

USA.gov is the U.S. government's official web portal to all federal, state and local government web resources and services.